createdAt,value
2023-12-26T00:02:46.158Z,100731.94
2023-12-26T00:07:48.069Z,100754.41
2023-12-26T00:12:50.070Z,100733.63
2023-12-26T00:17:52.088Z,100751.25
2023-12-26T00:22:54.721Z,100730.78
2023-12-26T00:27:56.825Z,100752.09
2023-12-26T00:33:01.324Z,100761.59
2023-12-26T00:38:05.763Z,100761.47
2023-12-26T00:43:09.896Z,100770.84
2023-12-26T00:48:15.264Z,100735.13
2023-12-26T00:53:22.262Z,100752.53
2023-12-26T00:58:27.039Z,100761.72
2023-12-26T01:03:29.218Z,100767.19
2023-12-26T01:08:31.236Z,100749.81
2023-12-26T01:13:36.201Z,100789.25
2023-12-26T01:18:38.403Z,100778.16
2023-12-26T01:23:40.521Z,100788.53
2023-12-26T01:28:44.507Z,100840.75
2023-12-26T01:33:46.421Z,100845.78
2023-12-26T01:38:48.686Z,100831.47
2023-12-26T01:43:50.589Z,100835.03
2023-12-26T01:48:55.211Z,100843.47
2023-12-26T01:54:00.271Z,100850.31
2023-12-26T01:59:03.964Z,100880.41
2023-12-26T02:04:06.467Z,100841.78
2023-12-26T02:09:13.900Z,100869.63
2023-12-26T02:14:15.864Z,100913.47
2023-12-26T02:19:20.486Z,100936.47
2023-12-26T02:24:22.465Z,100912.16
2023-12-26T02:29:26.126Z,100929.75
2023-12-26T02:34:28.297Z,100943.47
2023-12-26T02:39:30.658Z,100980.84
2023-12-26T02:44:32.586Z,100974.50
2023-12-26T02:49:34.646Z,100968.31
2023-12-26T02:54:37.210Z,100946.69
2023-12-26T02:59:39.232Z,100912.97
2023-12-26T03:04:41.112Z,100990.19
2023-12-26T03:09:43.031Z,100982.31
2023-12-26T03:14:45.004Z,100992.25
2023-12-26T03:19:46.882Z,100972.50
2023-12-26T03:24:49.023Z,100999.41
2023-12-26T03:29:51.066Z,101017.75
2023-12-26T03:34:53.533Z,101039.88
2023-12-26T03:39:58.051Z,101041.69
2023-12-26T03:45:00.438Z,101047.69
2023-12-26T03:50:07.879Z,101067.91
2023-12-26T03:55:09.918Z,101042.91
2023-12-26T04:00:12.595Z,101026.63
2023-12-26T04:05:14.701Z,101072.91
2023-12-26T04:10:16.648Z,101067.50
2023-12-26T04:15:18.826Z,101039.22
2023-12-26T04:20:23.256Z,101101.22
2023-12-26T04:25:27.808Z,101097.47
2023-12-26T04:30:29.677Z,101104.22
2023-12-26T04:35:31.568Z,101118.41
2023-12-26T04:40:33.586Z,101113.25
2023-12-26T04:45:39.657Z,101101.22
2023-12-26T04:50:41.745Z,101114.09
2023-12-26T04:55:43.773Z,101128.44
2023-12-26T05:00:45.821Z,101110.19
2023-12-26T05:05:47.813Z,101095.06
2023-12-26T05:10:49.689Z,101125.41
2023-12-26T05:15:51.588Z,101111.84
2023-12-26T05:20:53.606Z,101170.03
2023-12-26T05:26:01.916Z,101167.22
2023-12-26T05:31:14.471Z,101161.47
2023-12-26T05:36:16.666Z,101137.19
2023-12-26T05:41:20.751Z,101194.78
2023-12-26T05:46:24.758Z,101205.56
2023-12-26T05:51:26.769Z,101196.31
2023-12-26T05:56:28.816Z,101221.06
2023-12-26T06:01:30.634Z,101231.03
2023-12-26T06:06:32.542Z,101240.06
2023-12-26T06:11:36.631Z,101203.59
2023-12-26T06:16:38.756Z,101202.88
2023-12-26T06:21:40.638Z,101230.13
2023-12-26T06:26:42.562Z,101245.34
2023-12-26T06:31:44.448Z,101267.09
2023-12-26T06:36:46.654Z,101286.44
2023-12-26T06:41:48.561Z,101256.47
2023-12-26T06:46:50.715Z,101267.97
2023-12-26T06:51:52.870Z,101223.81
2023-12-26T06:56:54.842Z,101308.75
2023-12-26T07:01:56.853Z,101274.53
2023-12-26T07:06:58.901Z,101307.31
2023-12-26T07:12:00.895Z,101282.94
2023-12-26T07:17:05.257Z,101261.03
2023-12-26T07:22:08.369Z,101278.72
2023-12-26T07:27:13.008Z,101330.41
2023-12-26T07:32:14.993Z,101291.25
2023-12-26T07:37:16.853Z,101309.09
2023-12-26T07:42:21.224Z,101318.47
2023-12-26T07:47:23.131Z,101310.94
2023-12-26T07:52:24.976Z,101341.78
2023-12-26T07:57:29.090Z,101298.97
2023-12-26T08:02:30.919Z,101325.00
2023-12-26T08:07:32.868Z,101294.13
2023-12-26T08:12:34.843Z,101291.22
2023-12-26T08:17:37.179Z,101349.97
2023-12-26T08:22:39.063Z,101369.41
2023-12-26T08:27:41.980Z,101305.44
2023-12-26T08:32:43.854Z,101312.31
2023-12-26T08:37:45.809Z,101311.63
2023-12-26T08:42:48.806Z,101362.06
2023-12-26T08:47:51.351Z,101340.78
2023-12-26T08:52:56.095Z,101361.25
2023-12-26T08:57:58.041Z,101399.13
2023-12-26T09:03:06.659Z,101385.88
2023-12-26T09:08:09.613Z,101349.00
2023-12-26T09:13:12.516Z,101438.16
2023-12-26T09:18:14.436Z,101371.63
2023-12-26T09:23:19.819Z,101378.13
2023-12-26T09:28:22.010Z,101394.31
2023-12-26T09:33:23.927Z,101435.72
2023-12-26T09:38:25.919Z,101416.41
2023-12-26T09:43:28.278Z,101427.72
2023-12-26T09:48:34.973Z,101390.00
2023-12-26T09:53:45.318Z,101450.34
2023-12-26T09:58:47.287Z,101448.34
2023-12-26T10:03:51.954Z,101412.38
2023-12-26T10:08:54.062Z,101439.66
2023-12-26T10:13:56.957Z,101423.56
2023-12-26T10:18:58.809Z,101409.97
2023-12-26T10:24:00.957Z,101451.75
2023-12-26T10:29:03.798Z,101422.31
2023-12-26T10:34:19.929Z,101459.00
2023-12-26T10:39:21.980Z,101427.78
2023-12-26T10:44:30.472Z,101476.38
2023-12-26T10:49:36.335Z,101424.25
2023-12-26T10:54:42.142Z,101415.16
2023-12-26T10:59:44.024Z,101440.03
2023-12-26T11:04:46.803Z,101449.78
2023-12-26T11:09:49.114Z,101426.34
2023-12-26T11:14:53.605Z,101451.47
2023-12-26T11:19:55.565Z,101430.91
2023-12-26T11:24:59.663Z,101464.84
2023-12-26T11:30:01.679Z,101438.28
2023-12-26T11:35:03.648Z,101408.97
2023-12-26T11:40:05.572Z,101421.28
2023-12-26T11:45:07.486Z,101388.16
2023-12-26T11:50:10.013Z,101408.88
2023-12-26T11:55:14.717Z,101385.53
2023-12-26T12:00:17.073Z,101414.44
2023-12-26T12:05:18.959Z,101374.28
2023-12-26T12:10:21.166Z,101402.13
2023-12-26T12:15:23.240Z,101354.56
2023-12-26T12:20:25.400Z,101356.75
2023-12-26T12:25:27.340Z,101363.75
2023-12-26T12:30:29.280Z,101341.13
2023-12-26T12:35:31.178Z,101403.59
2023-12-26T12:40:33.177Z,101396.59
2023-12-26T12:45:35.356Z,101384.47
2023-12-26T12:50:37.194Z,101344.81
2023-12-26T12:55:42.272Z,101322.91
2023-12-26T13:00:44.920Z,101372.25
2023-12-26T13:05:46.917Z,101348.72
2023-12-26T13:10:48.955Z,101362.75
2023-12-26T13:15:53.161Z,101306.16
2023-12-26T13:20:57.406Z,101297.25
2023-12-26T13:26:04.921Z,101293.69
2023-12-26T13:31:07.149Z,101291.97
2023-12-26T13:36:09.176Z,101271.78
2023-12-26T13:41:14.386Z,101301.31
2023-12-26T13:46:16.601Z,101269.66
2023-12-26T13:51:19.296Z,101279.72
2023-12-26T13:56:21.593Z,101233.38
2023-12-26T14:01:24.446Z,101210.06
2023-12-26T14:06:29.910Z,101193.03
2023-12-26T14:11:36.747Z,101204.31
2023-12-26T14:16:38.930Z,101219.78
2023-12-26T14:21:44.295Z,101186.44
2023-12-26T14:26:46.245Z,101183.38
2023-12-26T14:31:48.426Z,101133.56
2023-12-26T14:36:51.353Z,101171.44
2023-12-26T14:41:53.319Z,101134.59
2023-12-26T14:46:55.175Z,101145.44
2023-12-26T14:51:57.270Z,101100.34
2023-12-26T14:56:59.292Z,101144.25
2023-12-26T15:02:02.945Z,101139.09
2023-12-26T15:07:07.039Z,101135.13
2023-12-26T15:12:09.243Z,101132.84
2023-12-26T15:17:14.580Z,101099.34
2023-12-26T15:22:17.044Z,101078.78
2023-12-26T15:27:19.062Z,101061.81
2023-12-26T15:32:21.386Z,101103.69
2023-12-26T15:37:23.387Z,101086.25
2023-12-26T15:42:25.556Z,101081.59
2023-12-26T15:47:27.391Z,101035.25
2023-12-26T15:52:29.192Z,101040.84
2023-12-26T15:57:33.497Z,100980.66
2023-12-26T16:02:37.211Z,101042.13
2023-12-26T16:07:39.419Z,101045.00
2023-12-26T16:12:41.854Z,101025.72
2023-12-26T16:17:46.206Z,101045.63
2023-12-26T16:22:48.201Z,101030.28
2023-12-26T16:27:49.955Z,101016.72
2023-12-26T16:32:52.171Z,101000.38
2023-12-26T16:37:54.174Z,100999.75
2023-12-26T16:42:58.258Z,100966.00
2023-12-26T16:48:04.243Z,100985.75
2023-12-26T16:53:06.097Z,100938.94
2023-12-26T16:58:10.334Z,100941.47
2023-12-26T17:03:12.247Z,100931.31
2023-12-26T17:08:16.493Z,100966.59
2023-12-26T17:13:20.459Z,100915.81
2023-12-26T17:18:23.501Z,100924.94
2023-12-26T17:23:25.435Z,100926.94
2023-12-26T17:28:27.195Z,100923.38
2023-12-26T17:33:31.454Z,100863.72
2023-12-26T17:38:33.468Z,100886.16
2023-12-26T17:43:37.858Z,100891.38
2023-12-26T17:48:39.905Z,100837.31
2023-12-26T17:53:41.880Z,100821.38
2023-12-26T17:58:43.779Z,100809.88
2023-12-26T18:03:46.218Z,100808.28
2023-12-26T18:08:48.242Z,100826.72
2023-12-26T18:13:50.159Z,100769.59
2023-12-26T18:18:52.248Z,100765.19
2023-12-26T18:23:54.465Z,100754.19
2023-12-26T18:28:58.453Z,100766.66
2023-12-26T18:34:03.102Z,100764.59
2023-12-26T18:39:05.322Z,100725.81
2023-12-26T18:44:10.123Z,100690.53
2023-12-26T18:49:12.683Z,100669.16
2023-12-26T18:54:15.330Z,100658.63
2023-12-26T18:59:18.638Z,100671.81
2023-12-26T19:04:21.058Z,100718.63
2023-12-26T19:09:23.267Z,100676.31
2023-12-26T19:14:27.330Z,100666.09
2023-12-26T19:19:31.791Z,100652.41
2023-12-26T19:24:33.743Z,100630.81
2023-12-26T19:29:37.759Z,100604.91
2023-12-26T19:34:39.548Z,100599.56
2023-12-26T19:39:41.544Z,100585.81
2023-12-26T19:44:46.085Z,100537.06
2023-12-26T19:49:48.171Z,100536.28
2023-12-26T19:54:50.384Z,100507.66
2023-12-26T19:59:52.424Z,100480.72
2023-12-26T20:04:54.570Z,100464.09
2023-12-26T20:09:58.181Z,100454.94
2023-12-26T20:15:00.438Z,100428.34
2023-12-26T20:20:02.751Z,100444.03
2023-12-26T20:25:08.379Z,100403.88
2023-12-26T20:30:12.580Z,100395.44
2023-12-26T20:35:16.673Z,100326.88
2023-12-26T20:40:18.524Z,100348.03
2023-12-26T20:45:20.733Z,100325.00
2023-12-26T20:50:23.885Z,100287.34
2023-12-26T20:55:27.195Z,100248.34
2023-12-26T21:00:31.659Z,100235.91
2023-12-26T21:05:33.789Z,100240.56
2023-12-26T21:10:35.917Z,100188.63
2023-12-26T21:15:40.311Z,100166.88
2023-12-26T21:20:42.440Z,100147.66
2023-12-26T21:25:46.356Z,100075.50
2023-12-26T21:30:48.986Z,100089.72
2023-12-26T21:35:52.094Z,100070.78
2023-12-26T21:40:56.916Z,100027.50
2023-12-26T21:45:59.350Z,100018.69
2023-12-26T21:51:01.135Z,100019.91
2023-12-26T21:56:10.377Z,99999.50
2023-12-26T22:01:12.378Z,99960.16
2023-12-26T22:06:14.310Z,99924.78
2023-12-26T22:11:16.806Z,99923.84
2023-12-26T22:16:22.928Z,99878.13
2023-12-26T22:21:25.250Z,99900.16
2023-12-26T22:26:29.569Z,99857.31
2023-12-26T22:31:31.433Z,99871.91
2023-12-26T22:36:33.265Z,99846.75
2023-12-26T22:41:35.382Z,99788.38
2023-12-26T22:46:39.435Z,99748.63
2023-12-26T22:51:43.701Z,99747.84
2023-12-26T22:56:45.990Z,99759.09
2023-12-26T23:01:51.687Z,99743.69
2023-12-26T23:06:53.618Z,99691.63
2023-12-26T23:11:57.749Z,99712.41
2023-12-26T23:16:59.768Z,99630.94
2023-12-26T23:22:04.249Z,99638.75
2023-12-26T23:27:06.070Z,99638.13
2023-12-26T23:32:10.232Z,99575.22
2023-12-26T23:37:12.078Z,99578.13
2023-12-26T23:42:16.304Z,99566.94
2023-12-26T23:47:18.741Z,99554.47
2023-12-26T23:52:20.766Z,99515.91
2023-12-26T23:57:24.894Z,99531.50
